sensor_id;sensor_type;location;lat;lon;timestamp;P1;durP1;ratioP1;P2;durP2;ratioP2
15047;SDS011;7621;52.350;13.308;2023-02-28T07:05:42;0.10;;;0.10;;
15047;SDS011;7621;52.350;13.308;2023-02-28T07:08:08;0.10;;;0.10;;
15047;SDS011;7621;52.350;13.308;2023-02-28T07:10:36;0.00;;;0.00;;
15047;SDS011;7621;52.350;13.308;2023-02-28T07:13:04;0.20;;;0.20;;
15047;SDS011;7621;52.350;13.308;2023-02-28T07:15:31;0.10;;;0.10;;
15047;SDS011;7621;52.350;13.308;2023-02-28T07:17:56;0.10;;;0.10;;
15047;SDS011;7621;52.350;13.308;2023-02-28T07:20:22;0.00;;;0.00;;
15047;SDS011;7621;52.350;13.308;2023-02-28T07:22:49;0.10;;;0.10;;
15047;SDS011;7621;52.350;13.308;2023-02-28T07:25:21;0.00;;;0.00;;
15047;SDS011;7621;52.350;13.308;2023-02-28T07:27:50;0.10;;;0.10;;
15047;SDS011;7621;52.350;13.308;2023-02-28T07:30:16;0.10;;;0.10;;
15047;SDS011;7621;52.350;13.308;2023-02-28T07:32:42;0.10;;;0.10;;
15047;SDS011;7621;52.350;13.308;2023-02-28T07:35:08;0.10;;;0.10;;
15047;SDS011;7621;52.350;13.308;2023-02-28T07:37:33;0.10;;;0.10;;
15047;SDS011;7621;52.350;13.308;2023-02-28T07:40:05;0.10;;;0.10;;
15047;SDS011;7621;52.350;13.308;2023-02-28T07:42:33;0.10;;;0.10;;
15047;SDS011;7621;52.350;13.308;2023-02-28T07:44:59;0.10;;;0.10;;
15047;SDS011;7621;52.350;13.308;2023-02-28T07:47:26;0.00;;;0.00;;
15047;SDS011;7621;52.350;13.308;2023-02-28T07:49:51;0.00;;;0.00;;
15047;SDS011;7621;52.350;13.308;2023-02-28T07:52:17;0.00;;;0.00;;
15047;SDS011;7621;52.350;13.308;2023-02-28T07:54:43;0.00;;;0.00;;
15047;SDS011;7621;52.350;13.308;2023-02-28T07:57:08;0.03;;;0.03;;
15047;SDS011;7621;52.350;13.308;2023-02-28T07:59:34;0.00;;;0.00;;
15047;SDS011;7621;52.350;13.308;2023-02-28T08:01:59;0.00;;;0.00;;
15047;SDS011;7621;52.350;13.308;2023-02-28T08:04:25;0.00;;;0.00;;
15047;SDS011;7621;52.350;13.308;2023-02-28T08:06:51;0.00;;;0.00;;
15047;SDS011;7621;52.350;13.308;2023-02-28T08:09:21;0.00;;;0.00;;
15047;SDS011;7621;52.350;13.308;2023-02-28T08:11:46;0.00;;;0.00;;
15047;SDS011;7621;52.350;13.308;2023-02-28T08:14:12;0.00;;;0.00;;
15047;SDS011;7621;52.350;13.308;2023-02-28T08:16:38;0.00;;;0.00;;
15047;SDS011;7621;52.350;13.308;2023-02-28T08:19:04;0.00;;;0.00;;
15047;SDS011;7621;52.350;13.308;2023-02-28T08:21:29;0.00;;;0.00;;
15047;SDS011;7621;52.350;13.308;2023-02-28T08:23:55;0.00;;;0.00;;
15047;SDS011;7621;52.350;13.308;2023-02-28T08:26:21;0.00;;;0.00;;
15047;SDS011;7621;52.350;13.308;2023-02-28T08:28:47;0.00;;;0.00;;
15047;SDS011;7621;52.350;13.308;2023-02-28T08:31:14;0.00;;;0.00;;
15047;SDS011;7621;52.350;13.308;2023-02-28T08:33:41;0.00;;;0.00;;
15047;SDS011;7621;52.350;13.308;2023-02-28T08:36:08;0.00;;;0.00;;
15047;SDS011;7621;52.350;13.308;2023-02-28T08:38:34;0.00;;;0.00;;
15047;SDS011;7621;52.350;13.308;2023-02-28T08:41:01;0.00;;;0.00;;
15047;SDS011;7621;52.350;13.308;2023-02-28T08:43:30;0.00;;;0.00;;
15047;SDS011;7621;52.350;13.308;2023-02-28T08:45:56;0.00;;;0.00;;
15047;SDS011;7621;52.350;13.308;2023-02-28T08:48:26;0.00;;;0.00;;
15047;SDS011;7621;52.350;13.308;2023-02-28T08:53:29;0.00;;;0.00;;
15047;SDS011;7621;52.350;13.308;2023-02-28T08:56:05;0.00;;;0.00;;
15047;SDS011;7621;52.350;13.308;2023-02-28T08:58:32;0.00;;;0.00;;
15047;SDS011;7621;52.350;13.308;2023-02-28T09:00:59;0.00;;;0.00;;
15047;SDS011;7621;52.350;13.308;2023-02-28T09:03:31;0.00;;;0.00;;
15047;SDS011;7621;52.350;13.308;2023-02-28T09:05:58;0.00;;;0.00;;
15047;SDS011;7621;52.350;13.308;2023-02-28T09:08:26;0.00;;;0.00;;
15047;SDS011;7621;52.350;13.308;2023-02-28T09:10:53;0.00;;;0.00;;
15047;SDS011;7621;52.350;13.308;2023-02-28T09:13:19;0.00;;;0.00;;
15047;SDS011;7621;52.350;13.308;2023-02-28T09:15:45;0.00;;;0.00;;
15047;SDS011;7621;52.350;13.308;2023-02-28T09:18:11;0.00;;;0.00;;
15047;SDS011;7621;52.350;13.308;2023-02-28T09:20:37;0.05;;;0.05;;
15047;SDS011;7621;52.350;13.308;2023-02-28T09:23:04;0.00;;;0.00;;
15047;SDS011;7621;52.350;13.308;2023-02-28T09:25:31;0.00;;;0.00;;
15047;SDS011;7621;52.350;13.308;2023-02-28T09:27:56;0.00;;;0.00;;
15047;SDS011;7621;52.350;13.308;2023-02-28T09:30:22;0.00;;;0.00;;
15047;SDS011;7621;52.350;13.308;2023-02-28T09:32:47;0.00;;;0.00;;
15047;SDS011;7621;52.350;13.308;2023-02-28T09:35:17;0.00;;;0.00;;
15047;SDS011;7621;52.350;13.308;2023-02-28T09:37:43;0.00;;;0.00;;
15047;SDS011;7621;52.350;13.308;2023-02-28T09:40:09;0.00;;;0.00;;
15047;SDS011;7621;52.350;13.308;2023-02-28T09:42:37;0.00;;;0.00;;
15047;SDS011;7621;52.350;13.308;2023-02-28T09:45:05;0.00;;;0.00;;
15047;SDS011;7621;52.350;13.308;2023-02-28T09:47:54;0.00;;;0.00;;
15047;SDS011;7621;52.350;13.308;2023-02-28T09:55:59;0.00;;;0.00;;
15047;SDS011;7621;52.350;13.308;2023-02-28T09:58:42;0.00;;;0.00;;
15047;SDS011;7621;52.350;13.308;2023-02-28T10:01:36;0.00;;;0.00;;
15047;SDS011;7621;52.350;13.308;2023-02-28T10:07:22;0.00;;;0.00;;
15047;SDS011;7621;52.350;13.308;2023-02-28T10:10:25;0.00;;;0.00;;
15047;SDS011;7621;52.350;13.308;2023-02-28T10:12:57;0.00;;;0.00;;
15047;SDS011;7621;52.350;13.308;2023-02-28T10:15:25;0.00;;;0.00;;
15047;SDS011;7621;52.350;13.308;2023-02-28T10:17:56;0.00;;;0.00;;
15047;SDS011;7621;52.350;13.308;2023-02-28T10:20:25;0.00;;;0.00;;
15047;SDS011;7621;52.350;13.308;2023-02-28T10:25:55;0.00;;;0.00;;
15047;SDS011;7621;52.350;13.308;2023-02-28T10:28:25;0.00;;;0.00;;
15047;SDS011;7621;52.350;13.308;2023-02-28T10:30:53;0.00;;;0.00;;
15047;SDS011;7621;52.350;13.308;2023-02-28T10:35:50;0.00;;;0.00;;
15047;SDS011;7621;52.350;13.308;2023-02-28T10:38:19;0.00;;;0.00;;
15047;SDS011;7621;52.350;13.308;2023-02-28T10:40:46;0.00;;;0.00;;
15047;SDS011;7621;52.350;13.308;2023-02-28T10:45:38;0.00;;;0.00;;
15047;SDS011;7621;52.350;13.308;2023-02-28T10:48:23;0.00;;;0.00;;
15047;SDS011;7621;52.350;13.308;2023-02-28T10:50:51;0.00;;;0.00;;
15047;SDS011;7621;52.350;13.308;2023-02-28T10:56:03;0.00;;;0.00;;
15047;SDS011;7621;52.350;13.308;2023-02-28T11:01:17;0.00;;;0.00;;
15047;SDS011;7621;52.350;13.308;2023-02-28T11:04:33;0.00;;;0.00;;
15047;SDS011;7621;52.350;13.308;2023-02-28T11:07:06;0.00;;;0.00;;
15047;SDS011;7621;52.350;13.308;2023-02-28T11:09:44;0.00;;;0.00;;
15047;SDS011;7621;52.350;13.308;2023-02-28T11:12:34;0.00;;;0.00;;
15047;SDS011;7621;52.350;13.308;2023-02-28T11:15:17;0.00;;;0.00;;
15047;SDS011;7621;52.350;13.308;2023-02-28T11:17:57;0.00;;;0.00;;
15047;SDS011;7621;52.350;13.308;2023-02-28T11:20:32;0.00;;;0.00;;
15047;SDS011;7621;52.350;13.308;2023-02-28T11:23:00;0.00;;;0.00;;
15047;SDS011;7621;52.350;13.308;2023-02-28T11:25:35;0.00;;;0.00;;
15047;SDS011;7621;52.350;13.308;2023-02-28T11:28:04;0.00;;;0.00;;
15047;SDS011;7621;52.350;13.308;2023-02-28T11:30:32;0.00;;;0.00;;
15047;SDS011;7621;52.350;13.308;2023-02-28T11:33:20;0.00;;;0.00;;
15047;SDS011;7621;52.350;13.308;2023-02-28T11:35:57;0.00;;;0.00;;
15047;SDS011;7621;52.350;13.308;2023-02-28T11:38:28;0.00;;;0.00;;
15047;SDS011;7621;52.350;13.308;2023-02-28T11:41:02;0.00;;;0.00;;
15047;SDS011;7621;52.350;13.308;2023-02-28T11:46:33;0.00;;;0.00;;
15047;SDS011;7621;52.350;13.308;2023-02-28T11:51:54;0.00;;;0.00;;
15047;SDS011;7621;52.350;13.308;2023-02-28T11:54:24;0.10;;;0.10;;
15047;SDS011;7621;52.350;13.308;2023-02-28T11:57:14;0.00;;;0.00;;
15047;SDS011;7621;52.350;13.308;2023-02-28T12:07:22;0.10;;;0.10;;
15047;SDS011;7621;52.350;13.308;2023-02-28T12:12:51;0.00;;;0.00;;
15047;SDS011;7621;52.350;13.308;2023-02-28T12:18:26;0.00;;;0.00;;
15047;SDS011;7621;52.350;13.308;2023-02-28T12:23:56;0.20;;;0.20;;
15047;SDS011;7621;52.350;13.308;2023-02-28T12:26:36;0.00;;;0.00;;
15047;SDS011;7621;52.350;13.308;2023-02-28T12:29:12;0.10;;;0.10;;
15047;SDS011;7621;52.350;13.308;2023-02-28T12:31:39;0.10;;;0.10;;
15047;SDS011;7621;52.350;13.308;2023-02-28T12:34:12;0.00;;;0.00;;
15047;SDS011;7621;52.350;13.308;2023-02-28T12:36:41;0.10;;;0.10;;
15047;SDS011;7621;52.350;13.308;2023-02-28T12:39:19;0.00;;;0.00;;
15047;SDS011;7621;52.350;13.308;2023-02-28T12:42:00;0.10;;;0.10;;
15047;SDS011;7621;52.350;13.308;2023-02-28T12:44:49;0.00;;;0.00;;
15047;SDS011;7621;52.350;13.308;2023-02-28T12:47:21;0.10;;;0.10;;
15047;SDS011;7621;52.350;13.308;2023-02-28T12:49:57;0.07;;;0.07;;
15047;SDS011;7621;52.350;13.308;2023-02-28T12:52:40;0.10;;;0.10;;
15047;SDS011;7621;52.350;13.308;2023-02-28T12:58:08;0.00;;;0.00;;
15047;SDS011;7621;52.350;13.308;2023-02-28T13:00:44;0.00;;;0.00;;
15047;SDS011;7621;52.350;13.308;2023-02-28T13:09:10;0.10;;;0.10;;
15047;SDS011;7621;52.350;13.308;2023-02-28T13:14:05;0.10;;;0.10;;
15047;SDS011;7621;52.350;13.308;2023-02-28T13:16:47;0.10;;;0.10;;
15047;SDS011;7621;52.350;13.308;2023-02-28T13:19:22;0.10;;;0.10;;
15047;SDS011;7621;52.350;13.308;2023-02-28T13:21:50;0.10;;;0.10;;
15047;SDS011;7621;52.350;13.308;2023-02-28T13:24:37;0.30;;;0.30;;
15047;SDS011;7621;52.350;13.308;2023-02-28T13:29:34;0.10;;;0.10;;
15047;SDS011;7621;52.350;13.308;2023-02-28T13:34:33;0.00;;;0.00;;
15047;SDS011;7621;52.350;13.308;2023-02-28T13:39:53;0.10;;;0.10;;
15047;SDS011;7621;52.350;13.308;2023-02-28T13:42:32;0.10;;;0.10;;
15047;SDS011;7621;52.350;13.308;2023-02-28T13:47:40;0.00;;;0.00;;
15047;SDS011;7621;52.350;13.308;2023-02-28T13:55:36;0.10;;;0.10;;
15047;SDS011;7621;52.350;13.308;2023-02-28T13:58:25;0.00;;;0.00;;
15047;SDS011;7621;52.350;13.308;2023-02-28T14:06:32;0.10;;;0.10;;
15047;SDS011;7621;52.350;13.308;2023-02-28T14:09:01;0.10;;;0.10;;
15047;SDS011;7621;52.350;13.308;2023-02-28T14:11:33;0.10;;;0.10;;
15047;SDS011;7621;52.350;13.308;2023-02-28T14:14:01;0.00;;;0.00;;
15047;SDS011;7621;52.350;13.308;2023-02-28T14:16:49;0.10;;;0.10;;
15047;SDS011;7621;52.350;13.308;2023-02-28T14:19:25;0.10;;;0.10;;
15047;SDS011;7621;52.350;13.308;2023-02-28T14:22:07;0.10;;;0.10;;
15047;SDS011;7621;52.350;13.308;2023-02-28T14:25:09;0.10;;;0.10;;
15047;SDS011;7621;52.350;13.308;2023-02-28T14:33:08;0.10;;;0.10;;
15047;SDS011;7621;52.350;13.308;2023-02-28T14:35:40;0.10;;;0.10;;
15047;SDS011;7621;52.350;13.308;2023-02-28T14:38:13;0.10;;;0.10;;
15047;SDS011;7621;52.350;13.308;2023-02-28T14:40:46;0.10;;;0.10;;
15047;SDS011;7621;52.350;13.308;2023-02-28T14:43:21;0.17;;;0.17;;
15047;SDS011;7621;52.350;13.308;2023-02-28T14:45:49;0.10;;;0.10;;
15047;SDS011;7621;52.350;13.308;2023-02-28T14:48:20;0.10;;;0.10;;
15047;SDS011;7621;52.350;13.308;2023-02-28T14:50:51;0.10;;;0.10;;
15047;SDS011;7621;52.350;13.308;2023-02-28T14:53:26;0.10;;;0.10;;
15047;SDS011;7621;52.350;13.308;2023-02-28T14:55:54;0.10;;;0.10;;
15047;SDS011;7621;52.350;13.308;2023-02-28T14:58:24;0.10;;;0.10;;
15047;SDS011;7621;52.350;13.308;2023-02-28T15:00:56;0.10;;;0.10;;
15047;SDS011;7621;52.350;13.308;2023-02-28T15:03:44;0.10;;;0.10;;
15047;SDS011;7621;52.350;13.308;2023-02-28T15:06:16;0.20;;;0.20;;
15047;SDS011;7621;52.350;13.308;2023-02-28T15:08:43;0.10;;;0.10;;
15047;SDS011;7621;52.350;13.308;2023-02-28T15:11:16;0.10;;;0.10;;
15047;SDS011;7621;52.350;13.308;2023-02-28T15:13:50;0.10;;;0.10;;
15047;SDS011;7621;52.350;13.308;2023-02-28T15:16:22;0.10;;;0.10;;
15047;SDS011;7621;52.350;13.308;2023-02-28T15:21:23;0.10;;;0.10;;
15047;SDS011;7621;52.350;13.308;2023-02-28T15:26:38;0.10;;;0.10;;
15047;SDS011;7621;52.350;13.308;2023-02-28T15:29:06;0.10;;;0.10;;
15047;SDS011;7621;52.350;13.308;2023-02-28T15:31:45;0.10;;;0.10;;
15047;SDS011;7621;52.350;13.308;2023-02-28T15:34:33;0.10;;;0.10;;
15047;SDS011;7621;52.350;13.308;2023-02-28T15:39:51;0.00;;;0.00;;
15047;SDS011;7621;52.350;13.308;2023-02-28T15:42:20;0.17;;;0.17;;
15047;SDS011;7621;52.350;13.308;2023-02-28T15:44:47;0.10;;;0.10;;
15047;SDS011;7621;52.350;13.308;2023-02-28T15:47:20;0.17;;;0.17;;
15047;SDS011;7621;52.350;13.308;2023-02-28T15:49:49;0.03;;;0.03;;
15047;SDS011;7621;52.350;13.308;2023-02-28T15:52:22;0.10;;;0.10;;
15047;SDS011;7621;52.350;13.308;2023-02-28T15:54:58;0.10;;;0.10;;
15047;SDS011;7621;52.350;13.308;2023-02-28T15:57:31;0.10;;;0.10;;
15047;SDS011;7621;52.350;13.308;2023-02-28T15:59:58;0.10;;;0.10;;
15047;SDS011;7621;52.350;13.308;2023-02-28T16:02:32;0.10;;;0.10;;
15047;SDS011;7621;52.350;13.308;2023-02-28T16:05:12;0.10;;;0.10;;
15047;SDS011;7621;52.350;13.308;2023-02-28T16:08:00;0.10;;;0.10;;
15047;SDS011;7621;52.350;13.308;2023-02-28T16:10:36;0.10;;;0.10;;
15047;SDS011;7621;52.350;13.308;2023-02-28T16:13:01;0.10;;;0.10;;
15047;SDS011;7621;52.350;13.308;2023-02-28T16:15:28;0.20;;;0.20;;
15047;SDS011;7621;52.350;13.308;2023-02-28T16:17:56;0.10;;;0.10;;
15047;SDS011;7621;52.350;13.308;2023-02-28T16:20:26;0.10;;;0.10;;
15047;SDS011;7621;52.350;13.308;2023-02-28T16:22:53;0.10;;;0.10;;
15047;SDS011;7621;52.350;13.308;2023-02-28T16:25:23;0.10;;;0.10;;
15047;SDS011;7621;52.350;13.308;2023-02-28T16:28:01;0.10;;;0.10;;
15047;SDS011;7621;52.350;13.308;2023-02-28T16:30:28;0.10;;;0.10;;
15047;SDS011;7621;52.350;13.308;2023-02-28T16:32:57;0.10;;;0.10;;
15047;SDS011;7621;52.350;13.308;2023-02-28T16:35:23;0.10;;;0.10;;
15047;SDS011;7621;52.350;13.308;2023-02-28T16:37:52;0.10;;;0.10;;
15047;SDS011;7621;52.350;13.308;2023-02-28T16:40:23;0.00;;;0.00;;
15047;SDS011;7621;52.350;13.308;2023-02-28T16:42:51;0.10;;;0.10;;
15047;SDS011;7621;52.350;13.308;2023-02-28T16:45:24;0.10;;;0.10;;
15047;SDS011;7621;52.350;13.308;2023-02-28T16:47:52;0.10;;;0.10;;
15047;SDS011;7621;52.350;13.308;2023-02-28T16:50:22;0.10;;;0.10;;
15047;SDS011;7621;52.350;13.308;2023-02-28T16:52:50;0.10;;;0.10;;
15047;SDS011;7621;52.350;13.308;2023-02-28T16:55:17;0.10;;;0.10;;
15047;SDS011;7621;52.350;13.308;2023-02-28T16:57:50;0.17;;;0.17;;
15047;SDS011;7621;52.350;13.308;2023-02-28T17:00:21;0.00;;;0.00;;
15047;SDS011;7621;52.350;13.308;2023-02-28T17:02:47;0.10;;;0.10;;
15047;SDS011;7621;52.350;13.308;2023-02-28T17:05:13;0.17;;;0.17;;
15047;SDS011;7621;52.350;13.308;2023-02-28T17:07:40;0.10;;;0.10;;
15047;SDS011;7621;52.350;13.308;2023-02-28T17:10:14;0.20;;;0.20;;
15047;SDS011;7621;52.350;13.308;2023-02-28T17:12:42;0.20;;;0.20;;
15047;SDS011;7621;52.350;13.308;2023-02-28T17:15:09;0.17;;;0.17;;
15047;SDS011;7621;52.350;13.308;2023-02-28T17:17:38;0.10;;;0.10;;
15047;SDS011;7621;52.350;13.308;2023-02-28T17:20:05;0.20;;;0.20;;
15047;SDS011;7621;52.350;13.308;2023-02-28T17:22:31;0.20;;;0.20;;
15047;SDS011;7621;52.350;13.308;2023-02-28T17:24:57;0.10;;;0.10;;
15047;SDS011;7621;52.350;13.308;2023-02-28T17:27:23;0.03;;;0.03;;
15047;SDS011;7621;52.350;13.308;2023-02-28T17:29:50;0.10;;;0.10;;
15047;SDS011;7621;52.350;13.308;2023-02-28T17:32:15;0.10;;;0.10;;
15047;SDS011;7621;52.350;13.308;2023-02-28T17:34:41;0.20;;;0.20;;
15047;SDS011;7621;52.350;13.308;2023-02-28T17:37:07;0.10;;;0.10;;
15047;SDS011;7621;52.350;13.308;2023-02-28T17:39:33;0.13;;;0.13;;
15047;SDS011;7621;52.350;13.308;2023-02-28T17:41:59;0.10;;;0.10;;
15047;SDS011;7621;52.350;13.308;2023-02-28T17:44:24;0.20;;;0.20;;
15047;SDS011;7621;52.350;13.308;2023-02-28T17:46:50;0.10;;;0.10;;
15047;SDS011;7621;52.350;13.308;2023-02-28T17:49:18;0.20;;;0.20;;
15047;SDS011;7621;52.350;13.308;2023-02-28T17:51:43;0.10;;;0.10;;
15047;SDS011;7621;52.350;13.308;2023-02-28T17:54:09;0.10;;;0.10;;
15047;SDS011;7621;52.350;13.308;2023-02-28T17:56:35;0.13;;;0.13;;
15047;SDS011;7621;52.350;13.308;2023-02-28T17:59:01;0.10;;;0.10;;
15047;SDS011;7621;52.350;13.308;2023-02-28T18:01:26;0.10;;;0.10;;
15047;SDS011;7621;52.350;13.308;2023-02-28T18:03:52;0.20;;;0.20;;
15047;SDS011;7621;52.350;13.308;2023-02-28T18:06:19;0.30;;;0.30;;
15047;SDS011;7621;52.350;13.308;2023-02-28T18:08:49;0.20;;;0.20;;
15047;SDS011;7621;52.350;13.308;2023-02-28T18:11:16;0.10;;;0.10;;
15047;SDS011;7621;52.350;13.308;2023-02-28T18:13:47;0.20;;;0.20;;
15047;SDS011;7621;52.350;13.308;2023-02-28T18:16:15;0.00;;;0.00;;
15047;SDS011;7621;52.350;13.308;2023-02-28T18:18:41;0.20;;;0.20;;
15047;SDS011;7621;52.350;13.308;2023-02-28T18:21:08;0.10;;;0.10;;
15047;SDS011;7621;52.350;13.308;2023-02-28T18:23:36;0.10;;;0.10;;
15047;SDS011;7621;52.350;13.308;2023-02-28T18:26:06;0.20;;;0.20;;
15047;SDS011;7621;52.350;13.308;2023-02-28T18:28:32;0.20;;;0.20;;
15047;SDS011;7621;52.350;13.308;2023-02-28T18:31:04;0.20;;;0.20;;
15047;SDS011;7621;52.350;13.308;2023-02-28T18:33:33;0.17;;;0.17;;
15047;SDS011;7621;52.350;13.308;2023-02-28T18:35:59;0.20;;;0.20;;
15047;SDS011;7621;52.350;13.308;2023-02-28T18:38:25;0.20;;;0.20;;
15047;SDS011;7621;52.350;13.308;2023-02-28T18:40:51;0.27;;;0.27;;
15047;SDS011;7621;52.350;13.308;2023-02-28T18:43:18;0.20;;;0.20;;
15047;SDS011;7621;52.350;13.308;2023-02-28T18:45:43;0.20;;;0.20;;
15047;SDS011;7621;52.350;13.308;2023-02-28T18:48:09;0.10;;;0.10;;
15047;SDS011;7621;52.350;13.308;2023-02-28T18:50:38;0.10;;;0.10;;
15047;SDS011;7621;52.350;13.308;2023-02-28T18:53:03;0.20;;;0.20;;
15047;SDS011;7621;52.350;13.308;2023-02-28T18:55:32;0.10;;;0.10;;
15047;SDS011;7621;52.350;13.308;2023-02-28T18:57:58;0.20;;;0.20;;
15047;SDS011;7621;52.350;13.308;2023-02-28T19:00:24;0.10;;;0.10;;
15047;SDS011;7621;52.350;13.308;2023-02-28T19:02:50;0.20;;;0.20;;
15047;SDS011;7621;52.350;13.308;2023-02-28T19:05:16;0.20;;;0.20;;
15047;SDS011;7621;52.350;13.308;2023-02-28T19:07:43;0.20;;;0.20;;
15047;SDS011;7621;52.350;13.308;2023-02-28T19:10:09;0.10;;;0.10;;
15047;SDS011;7621;52.350;13.308;2023-02-28T19:12:36;0.20;;;0.20;;
15047;SDS011;7621;52.350;13.308;2023-02-28T19:15:03;0.20;;;0.20;;
15047;SDS011;7621;52.350;13.308;2023-02-28T19:17:30;0.20;;;0.20;;
15047;SDS011;7621;52.350;13.308;2023-02-28T19:19:56;0.10;;;0.10;;
15047;SDS011;7621;52.350;13.308;2023-02-28T19:22:22;0.20;;;0.20;;
15047;SDS011;7621;52.350;13.308;2023-02-28T19:24:48;0.20;;;0.20;;
15047;SDS011;7621;52.350;13.308;2023-02-28T19:27:15;0.20;;;0.20;;
15047;SDS011;7621;52.350;13.308;2023-02-28T19:29:50;0.23;;;0.23;;
15047;SDS011;7621;52.350;13.308;2023-02-28T19:32:17;0.17;;;0.17;;
15047;SDS011;7621;52.350;13.308;2023-02-28T19:34:44;0.20;;;0.20;;
15047;SDS011;7621;52.350;13.308;2023-02-28T19:37:10;0.30;;;0.30;;
15047;SDS011;7621;52.350;13.308;2023-02-28T19:39:35;0.10;;;0.10;;
15047;SDS011;7621;52.350;13.308;2023-02-28T19:42:07;0.20;;;0.20;;
15047;SDS011;7621;52.350;13.308;2023-02-28T19:44:34;0.20;;;0.20;;
15047;SDS011;7621;52.350;13.308;2023-02-28T19:46:59;0.10;;;0.10;;
15047;SDS011;7621;52.350;13.308;2023-02-28T19:49:25;0.30;;;0.30;;
15047;SDS011;7621;52.350;13.308;2023-02-28T19:51:51;0.20;;;0.20;;
15047;SDS011;7621;52.350;13.308;2023-02-28T19:54:16;0.20;;;0.20;;
15047;SDS011;7621;52.350;13.308;2023-02-28T19:56:42;0.30;;;0.30;;
15047;SDS011;7621;52.350;13.308;2023-02-28T19:59:07;0.17;;;0.17;;
15047;SDS011;7621;52.350;13.308;2023-02-28T20:01:33;0.20;;;0.20;;
15047;SDS011;7621;52.350;13.308;2023-02-28T20:03:58;0.20;;;0.20;;
15047;SDS011;7621;52.350;13.308;2023-02-28T20:06:24;0.20;;;0.20;;
15047;SDS011;7621;52.350;13.308;2023-02-28T20:08:52;0.30;;;0.30;;
15047;SDS011;7621;52.350;13.308;2023-02-28T20:11:18;0.30;;;0.30;;
15047;SDS011;7621;52.350;13.308;2023-02-28T20:13:44;0.27;;;0.27;;
15047;SDS011;7621;52.350;13.308;2023-02-28T20:16:10;0.27;;;0.27;;
15047;SDS011;7621;52.350;13.308;2023-02-28T20:18:37;0.30;;;0.30;;
15047;SDS011;7621;52.350;13.308;2023-02-28T20:21:03;0.17;;;0.17;;
15047;SDS011;7621;52.350;13.308;2023-02-28T20:23:31;0.40;;;0.40;;
15047;SDS011;7621;52.350;13.308;2023-02-28T20:25:57;0.30;;;0.30;;
15047;SDS011;7621;52.350;13.308;2023-02-28T20:28:24;0.10;;;0.10;;
15047;SDS011;7621;52.350;13.308;2023-02-28T20:30:49;0.27;;;0.27;;
15047;SDS011;7621;52.350;13.308;2023-02-28T20:33:15;0.20;;;0.20;;
15047;SDS011;7621;52.350;13.308;2023-02-28T20:35:42;0.30;;;0.30;;
15047;SDS011;7621;52.350;13.308;2023-02-28T20:38:08;0.30;;;0.30;;
